Time;durP1;ratioP1;P1;durP2;ratioP2;P2;SDS_P1;SDS_P2;PMS_P1;PMS_P2;Temp;Humidity;BMP_temperature;BMP_pressure;BME280_temperature;BME280_humidity;BME280_pressure;Samples;Min_cycle;Max_cycle;Signal;HPM_P1;HPM_P2
2023/09/06 00:02:25;;;;;;;1.87;1.00;;;22.40;96.30;;;;;;4937981;28;20271;-78
2023/09/06 00:04:51;;;;;;;1.80;1.10;;;22.40;96.40;;;;;;4939548;28;20652;-78
2023/09/06 00:07:17;;;;;;;2.00;1.10;;;22.40;96.40;;;;;;4945490;28;20581;-78
2023/09/06 00:09:42;;;;;;;2.23;0.90;;;22.40;96.40;;;;;;4935777;28;20250;-78
2023/09/06 00:12:08;;;;;;;1.90;1.10;;;22.40;96.80;;;;;;4932017;29;20585;-78
2023/09/06 00:14:36;;;;;;;3.77;1.20;;;22.40;96.80;;;;;;4937325;28;20180;-78
2023/09/06 00:17:03;;;;;;;1.90;1.00;;;22.40;96.90;;;;;;4952862;28;20208;-78
2023/09/06 00:19:29;;;;;;;2.33;1.17;;;22.40;97.00;;;;;;4934099;29;20679;-78
2023/09/06 00:21:55;;;;;;;3.30;1.27;;;22.30;97.00;;;;;;4953191;28;20931;-78
2023/09/06 00:24:20;;;;;;;2.00;1.00;;;22.30;97.20;;;;;;4951612;28;20603;-78
2023/09/06 00:26:46;;;;;;;2.73;1.10;;;22.30;97.40;;;;;;4931308;29;20217;-78
2023/09/06 00:29:12;;;;;;;2.73;1.10;;;22.30;97.40;;;;;;4949010;28;20200;-78
2023/09/06 00:31:37;;;;;;;2.00;1.07;;;22.20;97.40;;;;;;4949411;28;20236;-78
2023/09/06 00:34:03;;;;;;;2.03;0.93;;;22.20;97.60;;;;;;4948180;28;20180;-78
2023/09/06 00:36:29;;;;;;;2.67;1.20;;;22.20;97.60;;;;;;4952701;28;20223;-78
2023/09/06 00:38:58;;;;;;;2.23;1.10;;;22.10;97.70;;;;;;4919249;29;20196;-78
2023/09/06 00:41:25;;;;;;;2.30;1.40;;;22.10;97.80;;;;;;4940608;29;20603;-78
2023/09/06 00:43:50;;;;;;;4.40;1.00;;;22.00;97.90;;;;;;4900821;29;20691;-78
2023/09/06 00:46:21;;;;;;;2.90;1.23;;;22.00;98.00;;;;;;4940535;28;21024;-78
2023/09/06 00:48:50;;;;;;;4.77;1.10;;;21.90;98.40;;;;;;4930875;29;20208;-76
2023/09/06 00:51:19;;;;;;;3.03;1.10;;;21.90;98.40;;;;;;4936186;28;20675;-75
2023/09/06 00:53:45;;;;;;;2.80;1.10;;;21.90;98.60;;;;;;4951406;28;20633;-75
2023/09/06 00:56:11;;;;;;;2.33;0.90;;;21.80;98.70;;;;;;4927643;29;20592;-76
2023/09/06 00:58:38;;;;;;;1.60;1.00;;;21.80;98.80;;;;;;4924468;29;20660;-76
2023/09/06 01:01:06;;;;;;;2.13;1.17;;;21.80;98.90;;;;;;4932081;29;20264;-76
2023/09/06 01:03:32;;;;;;;2.90;1.13;;;21.80;99.10;;;;;;4918656;29;20604;-76
2023/09/06 01:06:05;;;;;;;3.00;1.30;;;21.70;99.10;;;;;;4919422;29;20596;-76
2023/09/06 01:08:38;;;;;;;2.83;0.90;;;21.70;99.40;;;;;;4926973;29;20706;-75
2023/09/06 01:11:21;;;;;;;1.73;1.07;;;21.60;99.60;;;;;;4943837;28;20651;-75
2023/09/06 01:13:53;;;;;;;2.20;1.13;;;21.50;99.90;;;;;;4923667;29;20636;-75
2023/09/06 01:16:34;;;;;;;3.00;1.40;;;21.50;99.70;;;;;;4916633;29;20612;-75
2023/09/06 01:19:00;;;;;;;1.67;1.00;;;21.40;99.90;;;;;;4929596;28;20977;-75
2023/09/06 01:21:38;;;;;;;2.07;1.10;;;21.40;99.90;;;;;;4932005;28;20972;-75
2023/09/06 01:24:05;;;;;;;2.90;1.20;;;21.30;99.90;;;;;;4932136;28;20663;-75
2023/09/06 01:26:33;;;;;;;2.50;1.20;;;21.30;99.90;;;;;;4935559;29;20614;-75
2023/09/06 01:28:59;;;;;;;2.07;1.17;;;21.30;99.90;;;;;;4916462;28;20659;-75
2023/09/06 01:31:24;;;;;;;2.20;1.00;;;21.20;99.90;;;;;;4935141;28;20722;-75
2023/09/06 01:33:50;;;;;;;2.30;1.20;;;21.20;99.90;;;;;;4931071;29;21074;-75
2023/09/06 01:36:16;;;;;;;2.23;1.00;;;21.20;99.90;;;;;;4916381;29;20184;-75
2023/09/06 01:38:41;;;;;;;1.80;1.00;;;21.10;99.90;;;;;;4924231;29;20193;-75
2023/09/06 01:41:11;;;;;;;2.23;1.13;;;21.00;99.90;;;;;;4941766;28;20189;-75
2023/09/06 01:43:36;;;;;;;2.37;1.40;;;21.00;99.90;;;;;;4944224;29;20654;-75
2023/09/06 01:46:02;;;;;;;1.63;1.03;;;21.00;99.90;;;;;;4927933;28;20603;-75
2023/09/06 01:48:28;;;;;;;2.10;1.10;;;20.90;99.90;;;;;;4928443;28;20219;-75
2023/09/06 01:50:54;;;;;;;1.90;1.10;;;20.90;99.90;;;;;;4955525;28;20208;-75
2023/09/06 01:53:22;;;;;;;3.90;1.27;;;20.80;99.90;;;;;;4946879;28;20315;-75
2023/09/06 01:55:49;;;;;;;2.83;1.40;;;20.70;99.90;;;;;;4940388;29;20680;-75
2023/09/06 01:58:15;;;;;;;2.10;1.13;;;20.70;99.90;;;;;;4955613;28;20599;-75
2023/09/06 02:00:41;;;;;;;1.80;1.00;;;20.70;99.90;;;;;;4938520;29;20603;-75
2023/09/06 02:03:09;;;;;;;3.87;1.30;;;20.60;99.90;;;;;;4930833;28;20267;-75
2023/09/06 02:05:35;;;;;;;4.00;1.37;;;20.60;99.90;;;;;;4954740;28;20192;-75
2023/09/06 02:08:03;;;;;;;2.37;0.90;;;20.60;99.90;;;;;;4955379;28;20599;-75
2023/09/06 02:10:29;;;;;;;3.63;1.00;;;20.60;99.90;;;;;;4938439;29;20655;-75
2023/09/06 02:12:55;;;;;;;1.90;1.00;;;20.60;99.90;;;;;;4919300;29;20601;-75
2023/09/06 02:15:21;;;;;;;4.57;1.20;;;20.60;99.90;;;;;;4952668;28;20172;-75
2023/09/06 02:17:46;;;;;;;2.20;1.20;;;20.60;99.90;;;;;;4938107;28;20267;-75
2023/09/06 02:20:20;;;;;;;3.50;1.10;;;20.70;99.90;;;;;;4930959;29;20660;-75
2023/09/06 02:22:47;;;;;;;2.70;1.30;;;20.70;99.90;;;;;;4946963;28;20181;-75
2023/09/06 02:25:14;;;;;;;2.00;1.20;;;20.70;99.90;;;;;;4947044;28;20988;-75
2023/09/06 02:27:42;;;;;;;2.30;1.00;;;20.60;99.90;;;;;;4928545;28;20639;-75
2023/09/06 02:30:08;;;;;;;1.80;1.20;;;20.70;99.90;;;;;;4922049;29;20723;-75
2023/09/06 02:32:34;;;;;;;1.70;1.00;;;20.70;99.90;;;;;;4922292;29;20588;-75
2023/09/06 02:35:02;;;;;;;2.03;0.90;;;20.70;99.90;;;;;;4949642;29;20604;-75
2023/09/06 02:37:28;;;;;;;1.90;0.90;;;20.70;99.90;;;;;;4918844;29;20592;-75
2023/09/06 02:39:54;;;;;;;1.70;0.93;;;20.70;99.90;;;;;;4918692;29;20631;-75
2023/09/06 02:42:20;;;;;;;1.90;0.90;;;20.70;99.90;;;;;;4943767;28;20599;-75
2023/09/06 02:44:46;;;;;;;2.90;1.60;;;20.70;99.90;;;;;;4930027;28;20243;-75
2023/09/06 02:47:17;;;;;;;2.67;1.10;;;20.70;99.90;;;;;;4948124;29;20655;-75
2023/09/06 02:49:45;;;;;;;2.07;1.30;;;20.70;99.90;;;;;;4946259;28;20651;-75
2023/09/06 02:52:20;;;;;;;4.53;1.20;;;20.70;99.90;;;;;;4930011;28;20628;-75
2023/09/06 02:54:49;;;;;;;1.73;1.00;;;20.70;99.90;;;;;;4937845;29;21182;-75
2023/09/06 02:57:18;;;;;;;2.20;1.13;;;20.80;99.90;;;;;;4938581;29;20620;-76
2023/09/06 02:59:44;;;;;;;1.83;0.90;;;20.70;99.90;;;;;;4951026;28;20762;-75
2023/09/06 03:02:12;;;;;;;2.67;0.97;;;20.70;99.90;;;;;;4949308;29;20651;-75
2023/09/06 03:04:40;;;;;;;2.53;1.20;;;20.70;99.90;;;;;;4937418;29;20594;-74
2023/09/06 03:07:07;;;;;;;4.67;1.10;;;20.70;99.90;;;;;;4923524;29;20596;-75
2023/09/06 03:09:35;;;;;;;1.70;1.00;;;20.70;99.90;;;;;;4951025;28;21343;-74
2023/09/06 03:12:11;;;;;;;2.00;1.10;;;20.60;99.90;;;;;;4937440;29;21033;-74
2023/09/06 03:14:44;;;;;;;1.97;1.00;;;20.70;99.90;;;;;;4945055;29;20591;-74
2023/09/06 03:17:11;;;;;;;3.10;1.57;;;20.60;99.90;;;;;;4952801;28;20592;-74
2023/09/06 03:19:41;;;;;;;3.90;1.30;;;20.60;99.90;;;;;;4934657;29;20637;-74
2023/09/06 03:22:12;;;;;;;3.33;1.23;;;20.60;99.90;;;;;;4931030;29;20600;-74
2023/09/06 03:24:41;;;;;;;1.70;1.10;;;20.60;99.90;;;;;;4935580;28;21118;-74
2023/09/06 03:27:08;;;;;;;1.90;1.10;;;20.60;99.90;;;;;;4930759;29;20585;-74
2023/09/06 03:29:38;;;;;;;1.70;0.93;;;20.60;99.90;;;;;;4933014;29;21032;-73
2023/09/06 03:32:07;;;;;;;3.07;1.10;;;20.60;99.90;;;;;;4945190;28;20616;-74
2023/09/06 03:34:34;;;;;;;2.13;1.20;;;20.60;99.90;;;;;;4919797;29;20618;-74
2023/09/06 03:37:04;;;;;;;3.20;1.20;;;20.60;99.90;;;;;;4901600;29;20943;-74
2023/09/06 03:39:37;;;;;;;1.97;1.30;;;20.50;99.90;;;;;;4916257;29;20720;-74
2023/09/06 03:42:08;;;;;;;1.80;1.00;;;20.50;99.90;;;;;;4927171;29;20608;-74
2023/09/06 03:44:37;;;;;;;5.00;1.30;;;20.40;99.90;;;;;;4950228;28;20655;-74
2023/09/06 03:47:05;;;;;;;1.60;1.10;;;20.40;99.90;;;;;;4939226;29;20593;-75
2023/09/06 03:49:35;;;;;;;2.30;1.30;;;20.40;99.90;;;;;;4917198;29;20620;-74
2023/09/06 03:52:04;;;;;;;1.90;1.00;;;20.40;99.90;;;;;;4936028;28;20605;-74
2023/09/06 03:54:30;;;;;;;3.03;1.20;;;20.40;99.90;;;;;;4951665;28;20643;-74
2023/09/06 03:56:55;;;;;;;1.80;1.10;;;20.40;99.90;;;;;;4928986;29;20611;-74
2023/09/06 03:59:21;;;;;;;2.23;1.10;;;20.30;99.90;;;;;;4940053;28;20731;-74
2023/09/06 04:01:48;;;;;;;1.97;1.20;;;20.40;99.90;;;;;;4920284;29;20181;-75
2023/09/06 04:04:14;;;;;;;2.20;1.00;;;20.40;99.90;;;;;;4920247;28;20658;-74
2023/09/06 04:06:43;;;;;;;3.50;1.20;;;20.40;99.90;;;;;;4953025;28;20599;-74
2023/09/06 04:09:13;;;;;;;1.90;1.10;;;20.30;99.90;;;;;;4951357;28;20292;-74
2023/09/06 04:11:42;;;;;;;2.93;1.20;;;20.30;99.90;;;;;;4942728;28;20698;-75
2023/09/06 04:14:10;;;;;;;2.10;1.20;;;20.30;99.90;;;;;;4925809;29;20616;-75
2023/09/06 04:16:37;;;;;;;2.40;1.30;;;20.30;99.90;;;;;;4918180;29;20627;-75
2023/09/06 04:19:07;;;;;;;1.70;1.00;;;20.30;99.90;;;;;;4912195;29;20607;-75
2023/09/06 04:21:33;;;;;;;2.50;1.20;;;20.30;99.90;;;;;;4936623;28;20619;-74
2023/09/06 04:23:59;;;;;;;2.20;1.43;;;20.30;99.90;;;;;;4954840;28;20998;-74
2023/09/06 04:26:25;;;;;;;2.67;1.30;;;20.30;99.90;;;;;;4924822;29;20968;-75
2023/09/06 04:28:52;;;;;;;1.90;1.30;;;20.20;99.90;;;;;;4946385;29;20711;-75
2023/09/06 04:31:20;;;;;;;2.23;1.50;;;20.20;99.90;;;;;;4914625;29;20656;-75
2023/09/06 04:33:47;;;;;;;2.50;1.60;;;20.20;99.90;;;;;;4934908;29;20585;-76
2023/09/06 04:36:20;;;;;;;3.10;1.50;;;20.20;99.90;;;;;;4920030;29;20613;-76
2023/09/06 04:38:47;;;;;;;2.10;1.17;;;20.10;99.90;;;;;;4931007;29;21413;-76
2023/09/06 04:41:14;;;;;;;3.27;1.50;;;20.00;99.90;;;;;;4935585;29;20616;-76
2023/09/06 04:43:49;;;;;;;2.20;1.20;;;20.00;99.90;;;;;;4921608;29;20654;-76
2023/09/06 04:46:15;;;;;;;2.63;1.60;;;20.00;99.90;;;;;;4939367;29;21159;-74
2023/09/06 04:48:44;;;;;;;3.00;1.23;;;20.00;99.90;;;;;;4921979;29;20202;-75
2023/09/06 04:51:14;;;;;;;1.80;1.30;;;20.00;99.90;;;;;;4951984;28;21004;-75
2023/09/06 04:53:40;;;;;;;2.93;1.40;;;19.90;99.90;;;;;;4935882;28;20651;-75
2023/09/06 04:56:09;;;;;;;3.97;1.40;;;19.90;99.90;;;;;;4928103;29;20615;-75
2023/09/06 04:58:45;;;;;;;2.97;1.40;;;19.90;99.90;;;;;;4942067;28;20624;-75
2023/09/06 05:01:11;;;;;;;2.73;1.67;;;19.80;99.90;;;;;;4932563;29;21141;-75
2023/09/06 05:03:38;;;;;;;2.13;1.27;;;19.80;99.90;;;;;;4948144;28;20607;-75
2023/09/06 05:06:03;;;;;;;2.00;1.20;;;19.80;99.90;;;;;;4936679;29;20674;-75
2023/09/06 05:08:30;;;;;;;2.57;1.30;;;19.80;99.90;;;;;;4935046;29;20722;-74
2023/09/06 05:10:58;;;;;;;1.80;1.23;;;19.80;99.90;;;;;;4937713;29;20208;-76
2023/09/06 05:13:24;;;;;;;1.80;1.07;;;19.80;99.90;;;;;;4920873;29;21206;-74
2023/09/06 05:15:50;;;;;;;2.80;1.47;;;19.70;99.90;;;;;;4935359;28;20592;-74
2023/09/06 05:18:17;;;;;;;2.87;1.90;;;19.70;99.90;;;;;;4931778;29;20189;-73
2023/09/06 05:20:44;;;;;;;9.27;1.80;;;19.70;99.90;;;;;;4919212;29;20615;-73
2023/09/06 05:23:15;;;;;;;2.80;1.80;;;19.70;99.90;;;;;;4922291;28;20942;-73
2023/09/06 05:25:42;;;;;;;3.30;1.20;;;19.70;99.90;;;;;;4938276;28;20644;-76
2023/09/06 05:28:14;;;;;;;2.57;1.50;;;19.70;99.90;;;;;;4932257;28;20603;-74
2023/09/06 05:30:45;;;;;;;5.47;2.03;;;19.70;99.90;;;;;;4953285;28;20640;-74
2023/09/06 05:33:14;;;;;;;6.03;1.50;;;19.70;99.90;;;;;;4904017;29;20605;-75
2023/09/06 05:35:43;;;;;;;3.50;1.60;;;19.70;99.90;;;;;;4919831;29;20652;-75
2023/09/06 05:38:09;;;;;;;5.33;1.53;;;19.70;99.90;;;;;;4924124;28;20932;-75
2023/09/06 05:40:41;;;;;;;3.20;1.70;;;19.70;99.90;;;;;;4937808;29;20712;-75
2023/09/06 05:43:09;;;;;;;3.87;1.50;;;19.80;99.90;;;;;;4929829;29;20707;-76
2023/09/06 05:45:36;;;;;;;3.13;1.50;;;19.80;99.90;;;;;;4936257;29;20599;-75
2023/09/06 05:48:03;;;;;;;3.50;1.93;;;19.80;99.90;;;;;;4939474;29;20592;-75
2023/09/06 05:50:31;;;;;;;5.53;2.20;;;19.80;99.90;;;;;;4928750;29;20647;-76
2023/09/06 05:52:57;;;;;;;2.73;2.17;;;19.80;99.90;;;;;;4933817;29;20611;-76
2023/09/06 05:55:23;;;;;;;3.50;1.73;;;19.80;99.90;;;;;;4967525;28;20603;-76
2023/09/06 05:57:52;;;;;;;5.40;2.00;;;19.90;99.90;;;;;;4953545;28;20981;-76
2023/09/06 06:00:21;;;;;;;3.83;2.13;;;20.00;99.90;;;;;;4952834;28;20636;-77
2023/09/06 06:02:51;;;;;;;2.97;1.70;;;20.00;99.90;;;;;;4939218;29;20654;-77
2023/09/06 06:05:18;;;;;;;3.50;1.63;;;20.10;99.90;;;;;;4955353;28;20596;-77
2023/09/06 06:07:45;;;;;;;5.03;2.47;;;20.10;99.90;;;;;;4952061;28;20642;-76
2023/09/06 06:10:13;;;;;;;9.80;2.67;;;20.10;99.90;;;;;;4916285;29;20703;-75
2023/09/06 06:12:39;;;;;;;5.80;2.23;;;20.20;99.90;;;;;;4958777;28;20634;-78
2023/09/06 06:15:14;;;;;;;5.10;1.83;;;20.20;99.90;;;;;;4953608;28;21248;-77
2023/09/06 06:17:40;;;;;;;3.30;2.10;;;20.30;99.90;;;;;;4950776;29;20692;-78
2023/09/06 06:20:07;;;;;;;4.73;1.83;;;20.40;99.90;;;;;;4956686;28;21195;-76
2023/09/06 06:22:40;;;;;;;4.43;1.80;;;20.50;99.90;;;;;;4955768;28;21167;-74
2023/09/06 06:25:07;;;;;;;4.93;2.10;;;20.50;99.90;;;;;;4938612;29;20588;-74
2023/09/06 06:27:33;;;;;;;6.90;2.00;;;20.60;99.90;;;;;;4954913;28;20607;-75
2023/09/06 06:29:59;;;;;;;4.63;1.70;;;20.70;99.90;;;;;;4955871;28;20734;-75
2023/09/06 06:32:25;;;;;;;8.57;1.80;;;20.80;99.90;;;;;;4940412;29;20627;-74
2023/09/06 06:34:53;;;;;;;5.67;2.60;;;20.90;99.90;;;;;;4954832;28;20600;-75
2023/09/06 06:37:19;;;;;;;3.50;2.00;;;21.00;99.90;;;;;;4936967;29;20187;-75
2023/09/06 06:39:45;;;;;;;3.30;1.50;;;21.20;99.90;;;;;;4929657;29;20631;-74
2023/09/06 06:42:10;;;;;;;3.13;1.37;;;21.20;99.90;;;;;;4953589;28;20196;-75
2023/09/06 06:44:46;;;;;;;3.60;1.80;;;21.40;99.90;;;;;;4913107;28;20207;-74
2023/09/06 06:47:13;;;;;;;2.50;1.50;;;21.70;99.90;;;;;;4947262;28;20595;-75
2023/09/06 06:49:38;;;;;;;4.93;1.33;;;22.30;99.90;;;;;;4953945;28;20658;-75
2023/09/06 06:52:04;;;;;;;2.87;1.43;;;23.00;99.90;;;;;;4929552;29;20588;-74
2023/09/06 06:54:31;;;;;;;4.43;1.77;;;24.00;99.90;;;;;;4953353;28;20267;-76
2023/09/06 06:56:56;;;;;;;5.00;1.60;;;25.10;99.90;;;;;;4936449;29;20184;-75
2023/09/06 06:59:22;;;;;;;2.20;1.20;;;26.20;99.90;;;;;;4933083;28;20704;-75
2023/09/06 07:01:48;;;;;;;2.13;1.30;;;27.30;99.90;;;;;;4954778;28;20659;-74
2023/09/06 07:04:14;;;;;;;5.97;1.70;;;28.20;99.90;;;;;;4942404;28;20202;-74
2023/09/06 07:06:40;;;;;;;3.10;1.67;;;29.00;99.90;;;;;;4971194;28;20219;-75
2023/09/06 07:09:05;;;;;;;2.30;1.27;;;29.80;99.90;;;;;;4942017;29;20709;-75
2023/09/06 07:11:32;;;;;;;2.53;1.20;;;30.40;99.90;;;;;;4959898;29;20627;-75
2023/09/06 07:13:58;;;;;;;2.17;1.20;;;31.00;99.90;;;;;;4941761;29;20178;-76
2023/09/06 07:16:24;;;;;;;1.97;1.13;;;31.50;99.70;;;;;;4940841;29;20586;-76
2023/09/06 07:18:50;;;;;;;2.00;1.20;;;31.70;96.20;;;;;;4973596;28;20206;-77
2023/09/06 07:21:18;;;;;;;2.60;1.30;;;31.90;95.20;;;;;;4957041;28;20222;-77
2023/09/06 07:23:44;;;;;;;2.10;1.10;;;32.10;93.60;;;;;;4978056;28;20591;-74
2023/09/06 07:26:10;;;;;;;2.77;1.30;;;32.30;93.80;;;;;;4968846;28;21304;-75
2023/09/06 07:28:44;;;;;;;2.53;1.40;;;32.60;93.10;;;;;;4946818;29;20564;-75
2023/09/06 07:31:10;;;;;;;3.53;1.57;;;33.10;83.90;;;;;;4938790;29;20646;-76
2023/09/06 07:33:36;;;;;;;2.50;1.27;;;33.30;89.60;;;;;;4967799;28;20584;-76
2023/09/06 07:36:03;;;;;;;3.23;1.40;;;33.50;88.80;;;;;;4960847;29;21194;-77
2023/09/06 07:38:28;;;;;;;5.33;1.20;;;33.80;86.20;;;;;;4942698;29;20204;-76
2023/09/06 07:41:00;;;;;;;2.47;1.40;;;34.10;82.40;;;;;;4957875;28;20642;-75
2023/09/06 07:43:28;;;;;;;2.37;1.20;;;34.30;82.40;;;;;;4940686;29;20268;-77
2023/09/06 07:45:57;;;;;;;1.93;1.07;;;34.80;82.60;;;;;;4954184;29;20584;-76
2023/09/06 07:48:28;;;;;;;2.20;0.90;;;35.10;79.60;;;;;;4952062;28;20602;-75
2023/09/06 07:50:55;;;;;;;2.30;1.23;;;35.40;69.40;;;;;;4951961;28;21198;-74
2023/09/06 07:53:21;;;;;;;3.73;1.20;;;35.40;72.50;;;;;;4947169;28;21100;-75
2023/09/06 07:55:48;;;;;;;3.17;1.20;;;35.60;72.00;;;;;;4926545;29;20612;-75
2023/09/06 07:58:14;;;;;;;2.40;1.20;;;35.80;68.90;;;;;;4945175;28;20580;-75
2023/09/06 08:00:43;;;;;;;2.03;1.20;;;35.90;65.70;;;;;;4947030;29;20731;-75
2023/09/06 08:03:10;;;;;;;2.30;1.10;;;35.80;63.30;;;;;;4953559;29;20916;-76
2023/09/06 08:05:36;;;;;;;2.10;1.30;;;35.70;62.80;;;;;;4957303;28;20638;-75
2023/09/06 08:08:04;;;;;;;1.80;1.10;;;35.50;59.80;;;;;;4956671;28;20623;-75
2023/09/06 08:10:30;;;;;;;2.10;1.40;;;35.40;59.10;;;;;;4955620;28;20257;-75
2023/09/06 08:12:56;;;;;;;1.70;1.10;;;35.40;59.30;;;;;;4953448;28;20612;-75
2023/09/06 08:15:23;;;;;;;3.30;1.50;;;35.30;58.90;;;;;;4920543;29;20188;-75
2023/09/06 08:17:48;;;;;;;3.10;1.50;;;35.20;57.80;;;;;;4936268;29;20585;-75
2023/09/06 08:20:15;;;;;;;4.83;1.20;;;35.00;57.10;;;;;;4944827;28;20658;-75
2023/09/06 08:22:42;;;;;;;2.03;1.10;;;35.10;58.60;;;;;;4936254;28;20680;-75
2023/09/06 08:25:08;;;;;;;3.10;1.70;;;35.40;57.80;;;;;;4967725;28;20595;-75
2023/09/06 08:27:34;;;;;;;3.80;1.47;;;35.50;57.40;;;;;;4928164;29;20591;-75
2023/09/06 08:30:00;;;;;;;2.60;1.47;;;35.70;57.00;;;;;;4935473;29;20648;-76
2023/09/06 08:32:26;;;;;;;1.90;1.10;;;35.80;56.80;;;;;;4937522;28;20623;-75
2023/09/06 08:34:52;;;;;;;2.53;1.67;;;35.90;56.00;;;;;;4934994;29;20667;-76
2023/09/06 08:37:18;;;;;;;1.70;1.10;;;36.00;55.60;;;;;;4949424;28;20673;-76
2023/09/06 08:39:43;;;;;;;3.13;1.57;;;36.30;56.40;;;;;;4935134;28;20200;-76
2023/09/06 08:42:10;;;;;;;2.07;1.30;;;36.80;56.50;;;;;;4936002;29;20172;-76
2023/09/06 08:44:37;;;;;;;2.33;1.00;;;37.20;56.10;;;;;;4953118;28;20191;-76
2023/09/06 08:47:08;;;;;;;2.83;1.13;;;37.70;56.60;;;;;;4952876;28;20590;-75
2023/09/06 08:49:35;;;;;;;2.27;1.40;;;38.40;56.00;;;;;;4939496;28;20768;-76
2023/09/06 08:52:02;;;;;;;3.13;1.87;;;39.00;54.60;;;;;;4944310;28;20588;-74
2023/09/06 08:54:29;;;;;;;2.53;1.60;;;39.30;53.20;;;;;;4947330;28;20595;-74
2023/09/06 08:56:56;;;;;;;2.80;1.73;;;39.40;51.30;;;;;;4941712;28;20592;-74
2023/09/06 08:59:22;;;;;;;2.77;1.43;;;39.20;49.30;;;;;;4935272;29;20623;-74
2023/09/06 09:01:48;;;;;;;2.30;1.60;;;39.00;48.60;;;;;;4922370;28;20603;-75
2023/09/06 09:04:13;;;;;;;2.00;1.40;;;38.60;47.50;;;;;;4954482;29;20952;-74
2023/09/06 09:06:45;;;;;;;2.33;1.30;;;38.40;47.80;;;;;;4937786;28;20184;-74
2023/09/06 09:09:17;;;;;;;2.00;1.27;;;38.00;45.90;;;;;;4956609;28;20211;-76
2023/09/06 09:11:45;;;;;;;4.03;1.10;;;37.90;47.10;;;;;;4964867;28;20631;-75
2023/09/06 09:14:22;;;;;;;4.30;1.77;;;37.80;47.10;;;;;;4956437;28;20585;-75
2023/09/06 09:16:56;;;;;;;3.40;1.57;;;37.80;46.80;;;;;;4928171;29;20687;-75
2023/09/06 09:19:22;;;;;;;2.33;1.33;;;37.90;47.40;;;;;;4944708;28;21207;-76
2023/09/06 09:21:52;;;;;;;2.50;1.43;;;38.00;47.50;;;;;;4935963;29;20691;-77
2023/09/06 09:24:29;;;;;;;2.30;1.33;;;38.20;47.70;;;;;;4941652;29;20596;-76
2023/09/06 09:26:59;;;;;;;3.33;1.90;;;38.40;45.60;;;;;;4954990;28;20679;-77
2023/09/06 09:29:27;;;;;;;2.00;1.40;;;38.30;46.10;;;;;;4929400;29;20613;-77
2023/09/06 09:31:53;;;;;;;2.90;1.90;;;38.40;46.30;;;;;;4945521;28;20662;-76
2023/09/06 09:34:18;;;;;;;3.77;1.60;;;38.60;45.90;;;;;;4946739;29;20647;-76
2023/09/06 09:36:51;;;;;;;3.80;1.40;;;38.70;45.80;;;;;;4924762;29;20196;-75
2023/09/06 09:39:18;;;;;;;2.30;1.20;;;39.00;45.70;;;;;;4934372;29;22581;-74
2023/09/06 09:41:44;;;;;;;4.30;1.70;;;39.20;45.40;;;;;;4950527;28;20952;-75
2023/09/06 09:44:14;;;;;;;2.17;1.70;;;39.30;45.00;;;;;;4935131;29;20585;-75
2023/09/06 09:46:44;;;;;;;3.10;1.70;;;39.60;43.10;;;;;;4942759;29;20602;-77
2023/09/06 09:49:11;;;;;;;2.20;1.20;;;39.70;44.10;;;;;;4937641;28;20771;-74
2023/09/06 09:51:38;;;;;;;4.80;1.67;;;39.80;44.00;;;;;;4946310;29;20628;-75
2023/09/06 09:54:05;;;;;;;2.20;1.73;;;39.90;43.60;;;;;;4952789;28;20612;-74
2023/09/06 09:56:37;;;;;;;3.30;1.30;;;40.10;43.10;;;;;;4950142;29;20656;-75
2023/09/06 09:59:04;;;;;;;2.60;1.60;;;39.80;42.70;;;;;;4949756;29;20634;-75
2023/09/06 10:01:31;;;;;;;2.63;1.40;;;40.00;43.30;;;;;;4945124;29;20655;-74
2023/09/06 10:03:58;;;;;;;3.50;1.40;;;40.10;43.20;;;;;;4951250;29;20607;-74
2023/09/06 10:06:31;;;;;;;2.23;1.60;;;40.20;42.60;;;;;;4932944;29;20642;-75
2023/09/06 10:09:03;;;;;;;2.87;1.80;;;40.20;42.10;;;;;;4935924;29;20623;-73
2023/09/06 10:11:32;;;;;;;3.27;1.97;;;40.30;42.20;;;;;;4936053;29;20642;-73
2023/09/06 10:13:59;;;;;;;3.00;1.60;;;40.50;42.00;;;;;;4947161;29;20605;-74
2023/09/06 10:16:27;;;;;;;5.00;2.47;;;40.70;41.90;;;;;;4934976;29;20623;-74
2023/09/06 10:18:55;;;;;;;5.60;1.83;;;41.10;41.80;;;;;;4953866;29;20620;-75
2023/09/06 10:21:22;;;;;;;3.97;2.27;;;41.30;40.50;;;;;;4951383;28;20627;-73
2023/09/06 10:23:47;;;;;;;3.60;1.60;;;41.30;40.40;;;;;;4933237;29;20595;-73
2023/09/06 10:26:27;;;;;;;2.60;1.93;;;41.40;40.80;;;;;;4954994;28;20598;-73
2023/09/06 10:28:59;;;;;;;3.10;1.60;;;41.50;37.90;;;;;;4949849;28;20215;-74
2023/09/06 10:31:47;;;;;;;2.30;1.90;;;41.60;39.50;;;;;;4932329;29;20739;-74
2023/09/06 10:34:14;;;;;;;6.30;2.07;;;41.60;38.20;;;;;;4944383;28;20601;-74
2023/09/06 10:36:51;;;;;;;2.30;1.60;;;41.20;38.00;;;;;;4926359;29;20597;-74
2023/09/06 10:39:21;;;;;;;5.13;1.77;;;40.90;37.80;;;;;;4954075;28;20639;-74
2023/09/06 10:42:11;;;;;;;2.97;1.30;;;40.70;38.80;;;;;;4953159;28;20639;-74
2023/09/06 10:44:55;;;;;;;2.17;1.73;;;40.60;38.50;;;;;;4941965;28;20595;-74
2023/09/06 10:47:39;;;;;;;3.80;1.63;;;40.30;37.80;;;;;;4950408;28;20591;-74
2023/09/06 10:50:15;;;;;;;2.43;1.87;;;40.00;37.50;;;;;;4934133;28;20738;-74
2023/09/06 10:53:01;;;;;;;3.17;2.17;;;39.80;37.20;;;;;;4948769;28;20639;-74
2023/09/06 10:55:30;;;;;;;2.57;1.53;;;39.20;36.60;;;;;;4935156;29;20604;-75
2023/09/06 10:58:16;;;;;;;2.00;1.50;;;38.60;36.50;;;;;;4933728;28;20603;-78
2023/09/06 11:00:42;;;;;;;2.20;1.80;;;38.20;37.10;;;;;;4920222;29;20999;-78
2023/09/06 11:03:07;;;;;;;2.10;1.57;;;38.00;37.30;;;;;;4947182;28;20600;-79
2023/09/06 11:05:42;;;;;;;2.93;1.50;;;38.00;37.30;;;;;;4941422;28;20211;-77
2023/09/06 11:08:20;;;;;;;2.57;1.60;;;37.90;37.50;;;;;;4940959;28;20187;-77
2023/09/06 11:10:46;;;;;;;2.23;1.93;;;37.70;37.30;;;;;;4942706;28;21078;-77
2023/09/06 11:13:15;;;;;;;2.03;1.60;;;37.40;37.40;;;;;;4930908;29;20683;-77
2023/09/06 11:15:41;;;;;;;4.63;2.30;;;37.20;37.00;;;;;;4950866;28;20183;-77
2023/09/06 11:18:08;;;;;;;3.43;2.13;;;36.90;37.10;;;;;;4943600;28;20585;-77
2023/09/06 11:20:35;;;;;;;2.77;1.70;;;36.70;37.60;;;;;;4948428;28;20620;-77
2023/09/06 11:23:03;;;;;;;2.37;1.80;;;36.60;38.00;;;;;;4924182;29;20667;-77
2023/09/06 11:25:31;;;;;;;1.87;1.37;;;36.70;38.70;;;;;;4953610;28;20608;-77
2023/09/06 11:28:00;;;;;;;2.30;1.90;;;36.70;38.80;;;;;;4934724;29;20600;-77
2023/09/06 11:30:31;;;;;;;2.43;1.80;;;36.70;38.70;;;;;;4927844;28;20650;-77
2023/09/06 11:32:57;;;;;;;2.60;1.70;;;36.60;38.60;;;;;;4938393;29;20588;-78
2023/09/06 11:35:37;;;;;;;2.80;1.40;;;36.50;38.60;;;;;;4953703;28;20604;-78
2023/09/06 11:38:04;;;;;;;4.47;1.90;;;36.40;38.80;;;;;;4948838;28;20189;-77
2023/09/06 11:40:32;;;;;;;2.40;2.10;;;36.40;39.10;;;;;;4957179;28;20636;-77
2023/09/06 11:43:04;;;;;;;2.80;1.60;;;36.30;39.20;;;;;;4931496;28;20664;-76
2023/09/06 11:45:33;;;;;;;3.20;1.90;;;36.20;39.50;;;;;;4951699;28;20600;-77
2023/09/06 11:48:05;;;;;;;3.00;1.90;;;36.10;39.90;;;;;;4935997;28;20600;-77
2023/09/06 11:50:34;;;;;;;4.47;2.10;;;36.20;40.40;;;;;;4938074;29;20661;-78
2023/09/06 11:53:04;;;;;;;2.47;1.67;;;36.20;40.40;;;;;;4940180;28;20596;-79
2023/09/06 11:55:34;;;;;;;2.27;1.33;;;36.30;40.70;;;;;;4951767;28;20729;-77
2023/09/06 11:58:00;;;;;;;2.30;1.37;;;36.50;40.90;;;;;;4948824;28;21162;-77
2023/09/06 12:00:45;;;;;;;2.43;1.80;;;36.70;41.10;;;;;;4930997;28;21222;-77
2023/09/06 12:03:28;;;;;;;1.97;1.70;;;36.90;40.80;;;;;;4945222;28;20591;-77
2023/09/06 12:05:56;;;;;;;3.40;1.70;;;36.80;40.70;;;;;;4953963;28;21079;-77
2023/09/06 12:08:23;;;;;;;2.93;1.87;;;36.70;40.60;;;;;;4937457;28;20651;-77
2023/09/06 12:10:58;;;;;;;3.47;1.70;;;36.60;40.40;;;;;;4945605;28;20750;-78
2023/09/06 12:13:37;;;;;;;2.00;1.40;;;36.30;40.60;;;;;;4957400;28;20590;-78
2023/09/06 12:16:05;;;;;;;2.87;1.83;;;36.20;41.10;;;;;;4956957;28;21099;-78
2023/09/06 12:18:31;;;;;;;2.30;1.90;;;36.20;41.10;;;;;;4954287;28;20639;-77
2023/09/06 12:20:58;;;;;;;2.27;1.57;;;36.00;40.90;;;;;;4951782;28;20964;-77
2023/09/06 12:23:34;;;;;;;2.97;2.13;;;35.80;41.20;;;;;;4959160;28;20587;-78
2023/09/06 12:26:01;;;;;;;3.17;1.50;;;35.80;41.70;;;;;;4954106;28;20614;-78
2023/09/06 12:28:31;;;;;;;5.87;2.00;;;35.60;40.90;;;;;;4930900;28;20627;-78
2023/09/06 12:31:01;;;;;;;3.50;1.80;;;35.50;41.30;;;;;;4934340;28;21260;-79
2023/09/06 12:33:28;;;;;;;2.80;1.80;;;35.40;41.90;;;;;;4944645;28;20712;-78
2023/09/06 12:36:05;;;;;;;2.70;1.97;;;35.30;41.50;;;;;;4954520;28;20568;-77
2023/09/06 12:38:33;;;;;;;2.23;1.60;;;35.30;41.60;;;;;;4953680;28;20624;-77
2023/09/06 12:41:00;;;;;;;2.10;1.73;;;35.30;41.70;;;;;;4936535;29;20694;-77
2023/09/06 12:43:26;;;;;;;3.13;1.80;;;35.20;41.60;;;;;;4951045;28;20623;-77
2023/09/06 12:45:57;;;;;;;3.00;2.00;;;35.10;41.70;;;;;;4933934;29;20952;-76
2023/09/06 12:48:23;;;;;;;2.93;1.90;;;35.20;41.80;;;;;;4951885;28;20663;-77
2023/09/06 12:50:50;;;;;;;3.50;2.50;;;35.00;41.30;;;;;;4947515;28;20639;-77
2023/09/06 12:53:16;;;;;;;1.93;1.73;;;34.80;40.90;;;;;;4957395;28;20768;-77
2023/09/06 12:55:46;;;;;;;3.47;2.13;;;34.60;40.90;;;;;;4957494;28;20584;-78